Latest Weather Observations for Wilcannia Airport

IDN60801

Issued at 10:32 pm EDT Saturday 23 February 2019 (issued every 10 minutes, with the page automatically refreshed every 10 minutes)

About weather observations | Map of weather stations | Latest weather observations for NSW | Other Formats
Station Details ID: 046012 Name: WILCANNIA AERODROME AWS Lat: -31.52 Lon: 143.38 Height: 94.3 m
Data from the previous 72 hours. | See also: Recent months at Wilcannia Airport
Date/Time
EDT
Temp
°C
App
Temp
°C
Dew
Point
°C
Rel
Hum
%
Delta-T
°C
Wind Press
QNH
hPa
Press
MSL
hPa
Rain since
9am
mm
Dir  Spd
km/h
Gust
km/h
Spd
kts
Gust
kts
23/10:30pm 27.8 24.3 3.5 21 12.2 SE 11 13 6 7 1017.7 1017.1 0.0
23/10:00pm 28.8 25.3 3.6 20 12.7 SE 11 13 6 7 1017.6 1017.0 0.0
23/09:30pm 30.0 26.3 2.3 17 13.8 SE 11 13 6 7 1017.4 1016.8 0.0
23/09:00pm 31.0 26.9 2.3 16 14.4 SE 13 17 7 9 1017.0 1016.4 0.0
23/08:30pm 32.0 27.7 3.1 16 14.8 SE 15 22 8 12 1016.7 1016.1 0.0
23/08:00pm 33.0 28.4 3.9 16 15.2 SE 17 24 9 13 1016.2 1015.6 0.0
23/07:30pm 33.7 28.5 3.5 15 15.7 SE 20 30 11 16 1015.9 1015.3 0.0
23/07:00pm 34.4 29.3 3.1 14 16.2 SE 19 26 10 14 1015.8 1015.2 0.0
23/06:30pm 34.7 28.7 3.3 14 16.4 SE 24 33 13 18 1015.9 1015.3 0.0
23/06:00pm 35.1 30.5 3.6 14 16.5 SE 17 24 9 13 1015.8 1015.2 0.0
23/05:30pm 34.8 29.8 3.4 14 16.4 ESE 19 30 10 16 1015.9 1015.3 0.0
23/05:00pm 35.3 29.4 3.8 14 16.6 ESE 24 35 13 19 1016.1 1015.5 0.0
23/04:30pm 34.8 30.3 4.4 15 16.2 SSE 17 35 9 19 1016.3 1015.7 0.0
23/04:00pm 35.4 30.6 4.8 15 16.4 E 19 30 10 16 1016.5 1015.9 0.0
23/03:30pm 34.5 30.0 4.1 15 16.1 SE 17 28 9 15 1016.8 1016.2 0.0
23/03:00pm 35.0 31.7 6.3 17 15.7 SSE 13 28 7 15 1017.2 1016.6 0.0
23/02:30pm 33.7 28.1 5.3 17 15.2 ESE 24 33 13 18 1017.7 1017.1 0.0
23/02:00pm 33.6 29.5 6.0 18 14.9 E 17 30 9 16 1018.0 1017.4 0.0
23/01:30pm 33.5 29.5 6.7 19 14.7 ESE 17 28 9 15 1018.3 1017.7 0.0
23/01:00pm 32.0 28.5 7.0 21 13.6 E 15 24 8 13 1018.7 1018.1 0.0
23/12:30pm 31.6 27.7 7.3 22 13.3 E 17 28 9 15 1019.1 1018.5 0.0
23/12:00pm 30.6 27.2 7.7 24 12.5 ENE 15 24 8 13 1019.3 1018.7 0.0
23/11:30am 30.2 26.4 7.4 24 12.4 ENE 17 26 9 14 1019.5 1018.9 0.0
23/11:00am 29.4 25.2 7.3 25 11.9 ENE 19 26 10 14 1019.5 1018.9 0.0
23/10:30am 29.2 25.2 8.3 27 11.5 ENE 19 30 10 16 1019.4 1018.8 0.0
23/10:00am 27.9 23.2 7.7 28 10.9 ENE 22 28 12 15 1019.3 1018.7 0.0
23/09:30am 27.4 23.1 7.8 29 10.6 ENE 20 28 11 15 1019.1 1018.5 0.0
23/09:00am 26.2 22.4 7.7 31 9.9 ESE 17 24 9 13 1018.9 1018.3 0.0
23/08:30am 25.0 21.6 7.6 33 9.2 SE 15 20 8 11 1018.6 1018.0 0.0
23/08:00am 23.8 20.3 7.4 35 8.6 SE 15 20 8 11 1018.2 1017.6 0.0
23/07:30am 22.0 19.0 7.8 40 7.4 SE 13 15 7 8 1017.7 1017.1 0.0
23/07:00am 21.9 18.8 7.3 39 7.6 SE 13 17 7 9 1017.2 1016.6 0.0
23/06:30am 22.2 18.6 6.8 37 7.9 SSE 15 19 8 10 1016.7 1016.1 0.0
23/06:00am 22.6 18.9 6.4 35 8.3 SE 15 19 8 10 1016.3 1015.7 0.0
23/05:30am 22.7 18.9 6.0 34 8.5 SSE 15 19 8 10 1016.1 1015.5 0.0
23/05:00am 22.9 19.4 5.3 32 8.8 SSE 13 15 7 8 1015.8 1015.2 0.0
23/04:30am 23.9 20.1 5.8 31 9.2 SSE 15 17 8 9 1015.5 1014.9 0.0
23/04:00am 24.2 20.2 5.1 29 9.6 SSE 15 17 8 9 1015.4 1014.8 0.0
23/03:30am 24.6 20.5 4.4 27 10.1 SSE 15 19 8 10 1015.3 1014.7 0.0
23/03:00am 25.1 21.5 4.8 27 10.2 SSE 13 17 7 9 1015.3 1014.7 0.0
23/02:30am 24.9 21.0 3.5 25 10.5 SSE 13 15 7 8 1015.6 1015.0 0.0
23/02:00am 25.7 21.8 3.6 24 11.0 S 13 17 7 9 1015.8 1015.2 0.0
23/01:30am 25.6 21.1 2.3 22 11.3 S 15 19 8 10 1015.9 1015.3 0.0
23/01:00am 25.7 21.5 1.8 21 11.5 S 13 17 7 9 1016.0 1015.4 0.0
23/12:30am 26.1 21.5 1.4 20 11.8 S 15 19 8 10 1016.1 1015.5 0.0
23/12:00am 26.6 22.2 0.4 18 12.3 S 13 19 7 10 1016.0 1015.4 0.0
 
Date/Time
EDT
Temp
°C
App
Temp
°C
Dew
Point
°C
Rel
Hum
%
Delta-T
°C
Wind Press
QNH
hPa
Press
MSL
hPa
Rain since
9am
mm
Dir  Spd
km/h
Gust
km/h
Spd
kts
Gust
kts
22/11:30pm 27.3 22.5 0.1 17 12.8 S 15 19 8 10 1016.2 1015.6 0.0
22/11:00pm 27.6 22.7 -0.5 16 13.1 S 15 19 8 10 1016.2 1015.6 0.0
22/10:30pm 28.0 23.2 -0.1 16 13.3 S 15 19 8 10 1016.1 1015.5 0.0
22/10:00pm 28.7 23.8 -0.5 15 13.7 S 15 20 8 11 1015.9 1015.3 0.0
22/09:30pm 29.5 23.8 -0.8 14 14.3 S 19 24 10 13 1015.7 1015.1 0.0
22/09:00pm 30.3 24.7 -0.1 14 14.6 S 19 24 10 13 1015.3 1014.7 0.0
22/08:30pm 30.9 25.6 -0.7 13 15.1 S 17 28 9 15 1015.1 1014.5 0.0
22/08:00pm 32.0 25.5 0.2 13 15.5 S 24 32 13 17 1014.7 1014.1 0.0
22/07:30pm 32.9 26.7 -0.2 12 16.1 SSE 22 32 12 17 1014.5 1013.9 0.0
22/07:00pm 33.7 26.8 0.4 12 16.5 S 26 37 14 20 1014.4 1013.8 0.0
22/06:30pm 34.0 27.5 0.6 12 16.6 SSE 24 39 13 21 1014.3 1013.7 0.0
22/06:00pm 34.6 28.2 1.1 12 16.9 SSE 24 35 13 19 1014.3 1013.7 0.0
22/05:39pm 34.4 27.2 0.9 12 16.8 SSE 28 46 15 25 1014.2 1013.6 0.0
22/05:30pm 34.5 27.0 1.0 12 16.8 SSE 30 43 16 23 1014.2 1013.6 0.0
22/05:00pm 34.7 27.9 1.1 12 16.9 SSE 26 37 14 20 1014.3 1013.7 0.0
22/04:30pm 35.1 29.4 2.6 13 16.8 SSE 22 37 12 20 1014.4 1013.8 0.0
22/04:00pm 34.4 28.5 2.0 13 16.5 S 22 37 12 20 1014.6 1014.0 0.0
22/03:30pm 34.2 28.5 2.9 14 16.2 S 22 32 12 17 1014.9 1014.3 0.0
22/03:00pm 34.0 28.8 3.7 15 15.8 SSE 20 32 11 17 1015.3 1014.7 0.0
22/02:30pm 33.4 28.9 4.2 16 15.3 S 17 33 9 18 1015.6 1015.0 0.0
22/02:00pm 33.3 29.4 7.3 20 14.3 SSE 17 30 9 16 1015.9 1015.3 0.0
22/01:30pm 32.9 29.1 7.7 21 14.0 S 17 24 9 13 1016.2 1015.6 0.0
22/01:00pm 31.6 27.5 8.0 23 13.1 S 19 28 10 15 1016.5 1015.9 0.0
22/12:30pm 30.7 26.7 8.4 25 12.4 S 19 30 10 16 1016.8 1016.2 0.0
22/12:00pm 29.5 25.6 8.5 27 11.6 SSE 19 24 10 13 1017.1 1016.5 0.0
22/11:30am 28.2 23.8 7.4 27 11.2 SSE 20 32 11 17 1017.4 1016.8 0.0
22/11:00am 27.6 23.7 6.9 27 11.0 SSE 17 24 9 13 1017.3 1016.7 0.0
22/10:30am 26.1 21.6 6.2 28 10.4 SSE 19 26 10 14 1017.2 1016.6 0.0
22/10:00am 25.4 20.7 6.1 29 10.0 SSE 20 28 11 15 1017.3 1016.7 0.0
22/09:30am 23.4 17.8 5.3 31 9.1 SSE 24 30 13 16 1017.2 1016.6 0.0
22/09:00am 22.6 16.9 5.1 32 8.7 SSE 24 35 13 19 1017.0 1016.4 0.0
22/08:30am 21.6 16.5 4.2 32 8.5 SSE 20 32 11 17 1016.8 1016.2 0.0
22/08:00am 20.2 16.2 3.0 32 8.1 S 13 20 7 11 1016.5 1015.9 0.0
22/07:30am 19.0 14.5 2.4 33 7.7 S 15 20 8 11 1016.3 1015.7 0.0
22/07:00am 19.2 14.8 2.6 33 7.7 S 15 19 8 10 1016.0 1015.4 0.0
22/06:30am 19.5 15.0 2.4 32 7.9 SSE 15 20 8 11 1016.0 1015.4 0.0
22/06:00am 19.6 15.5 2.0 31 8.1 S 13 19 7 10 1015.8 1015.2 0.0
22/05:30am 19.9 15.7 1.8 30 8.3 SSE 13 17 7 9 1015.7 1015.1 0.0
22/05:00am 20.5 16.3 1.9 29 8.6 SSE 13 19 7 10 1015.6 1015.0 0.0
22/04:30am 20.7 15.7 1.6 28 8.8 SSE 17 20 9 11 1015.3 1014.7 0.0
22/04:00am 21.2 16.2 1.5 27 9.1 S 17 28 9 15 1015.2 1014.6 0.0
22/03:30am 21.9 16.5 1.0 25 9.6 S 19 26 10 14 1015.0 1014.4 0.0
22/03:00am 22.3 16.9 1.3 25 9.7 S 19 24 10 13 1015.1 1014.5 0.0
22/02:30am 22.7 17.3 1.1 24 10.0 S 19 24 10 13 1015.2 1014.6 0.0
22/02:00am 23.2 17.8 1.5 24 10.2 S 19 24 10 13 1015.3 1014.7 0.0
22/01:30am 23.3 18.3 1.6 24 10.2 S 17 20 9 11 1015.4 1014.8 0.0
22/01:00am 23.6 18.6 1.3 23 10.4 S 17 22 9 12 1015.5 1014.9 0.0
22/12:30am 23.3 19.1 1.6 24 10.2 S 13 17 7 9 1015.5 1014.9 0.0
22/12:00am 23.9 19.7 1.5 23 10.5 S 13 15 7 8 1015.6 1015.0 0.0
 
Date/Time
EDT
Temp
°C
App
Temp
°C
Dew
Point
°C
Rel
Hum
%
Delta-T
°C
Wind Press
QNH
hPa
Press
MSL
hPa
Rain since
9am
mm
Dir  Spd
km/h
Gust
km/h
Spd
kts
Gust
kts
21/11:30pm 24.7 20.1 1.6 22 11.0 S 15 20 8 11 1015.7 1015.1 0.0
21/11:00pm 25.4 20.5 2.2 22 11.2 S 17 20 9 11 1015.7 1015.1 0.0
21/10:30pm 26.2 21.3 2.2 21 11.6 S 17 22 9 12 1015.6 1015.0 0.0
21/10:00pm 26.9 21.6 2.1 20 12.1 SSE 19 28 10 15 1015.3 1014.7 0.0
21/09:30pm 27.5 21.9 1.1 18 12.7 SSE 20 32 11 17 1014.9 1014.3 0.0
21/09:00pm 27.8 22.3 0.5 17 13.0 S 19 28 10 15 1014.5 1013.9 0.0
21/08:30pm 28.4 22.0 1.0 17 13.2 S 24 35 13 19 1014.0 1013.4 0.0
21/08:00pm 29.1 22.3 0.7 16 13.7 SSE 26 39 14 21 1013.6 1013.0 0.0
21/07:30pm 29.8 22.2 0.4 15 14.2 S 30 41 16 22 1013.4 1012.8 0.0
21/07:00pm 30.6 23.1 1.0 15 14.5 S 30 46 16 25 1013.3 1012.7 0.0
21/06:56pm 30.7 23.6 1.1 15 14.5 S 28 46 15 25 1013.3 1012.7 0.0
21/06:30pm 31.0 23.5 1.4 15 14.6 S 30 43 16 23 1013.2 1012.6 0.0
21/06:00pm 31.3 23.9 1.6 15 14.8 S 30 43 16 23 1013.2 1012.6 0.0
21/05:50pm 31.4 24.0 1.7 15 14.8 S 30 56 16 30 1013.0 1012.4 0.0
21/05:30pm 31.0 23.7 2.3 16 14.4 S 30 46 16 25 1013.2 1012.6 0.0
21/05:00pm 31.8 24.8 2.0 15 15.0 S 28 46 15 25 1013.3 1012.7 0.0
21/04:49pm 31.5 24.5 1.8 15 14.8 SSE 28 46 15 25 1013.3 1012.7 0.0
21/04:30pm 31.6 24.7 2.7 16 14.7 S 28 39 15 21 1013.4 1012.8 0.0
21/04:03pm 31.3 24.4 2.5 16 14.5 SSE 28 46 15 25 1013.7 1013.1 0.0
21/04:00pm 31.1 23.8 2.3 16 14.5 SSE 30 46 16 25 1013.8 1013.2 0.0
21/03:30pm 31.1 23.8 2.3 16 14.5 SSE 30 43 16 23 1014.2 1013.6 0.0
21/03:00pm 30.8 23.6 3.0 17 14.1 S 30 39 16 21 1014.6 1014.0 0.0
21/02:30pm 30.6 24.8 4.4 19 13.6 S 24 41 13 22 1015.1 1014.5 0.0
21/02:00pm 29.4 23.5 4.1 20 13.0 SSE 24 39 13 21 1015.7 1015.1 0.0
21/01:30pm 29.4 23.4 5.5 22 12.5 S 26 39 14 21 1016.1 1015.5 0.0
21/01:00pm 28.7 23.1 5.5 23 12.1 SSE 24 54 13 29 1016.3 1015.7 0.0
21/12:30pm 27.7 22.2 5.9 25 11.4 SSE 24 43 13 23 1016.8 1016.2 0.0
21/12:00pm 27.2 21.5 6.6 27 10.9 SSE 26 35 14 19 1017.1 1016.5 0.0
21/11:30am 26.4 20.4 6.9 29 10.3 SSE 28 35 15 19 1017.2 1016.6 0.0
21/11:00am 25.4 19.4 7.1 31 9.6 SSE 28 37 15 20 1017.4 1016.8 0.0
21/10:30am 24.7 19.4 6.9 32 9.3 SSE 24 39 13 21 1017.4 1016.8 0.0
21/10:00am 23.2 17.5 6.5 34 8.6 SSE 26 35 14 19 1017.2 1016.6 0.0
21/09:30am 22.3 16.2 6.5 36 8.1 SSE 28 39 15 21 1017.0 1016.4 0.0
21/09:00am 21.2 15.6 7.1 40 7.2 S 26 35 14 19 1016.8 1016.2 0.0
21/08:30am 19.7 14.6 6.1 41 6.8 S 22 33 12 18 1016.6 1016.0 0.0
21/08:00am 19.1 14.3 5.6 41 6.6 SSW 20 26 11 14 1016.2 1015.6 0.0
21/07:30am 18.4 14.0 4.6 40 6.6 S 17 22 9 12 1015.8 1015.2 0.0
21/07:00am 18.1 13.9 3.9 39 6.7 S 15 19 8 10 1015.2 1014.6 0.0
21/06:30am 18.7 13.4 2.9 35 7.4 S 20 30 11 16 1015.0 1014.4 0.0
21/06:00am 18.1 13.2 2.0 34 7.3 SSW 17 26 9 14 1014.7 1014.1 0.0
21/05:30am 15.8 11.2 -0.8 32 7.0 SW 13 17 7 9 1014.4 1013.8 0.0
21/05:00am 16.1 11.5 -1.0 31 7.2 SSW 13 15 7 8 1014.3 1013.7 0.0
21/04:30am 15.2 11.3 -1.8 31 6.9 SW 9 11 5 6 1014.1 1013.5 0.0
21/04:00am 16.7 12.9 -0.9 30 7.4 SW 9 11 5 6 1014.1 1013.5 0.0
21/03:30am 17.0 13.2 -1.1 29 7.6 SW 9 11 5 6 1014.1 1013.5 0.0
21/03:00am 18.4 14.5 -1.4 26 8.4 SW 9 11 5 6 1014.2 1013.6 0.0
21/02:30am 20.2 15.8 0.1 26 9.0 SSW 13 15 7 8 1014.2 1013.6 0.0
21/02:00am 21.0 16.2 0.2 25 9.3 S 15 19 8 10 1014.4 1013.8 0.0
21/01:30am 21.5 16.3 0.1 24 9.6 SSW 17 20 9 11 1014.6 1014.0 0.0
21/01:00am 21.5 16.7 0.1 24 9.6 SSW 15 19 8 10 1014.4 1013.8 0.0
21/12:30am 20.6 16.0 -1.2 23 9.5 SSW 13 15 7 8 1014.5 1013.9 0.0
21/12:00am 21.9 17.3 -1.4 21 10.2 SSW 13 15 7 8 1014.6 1014.0 0.0
 
Date/Time
EDT
Temp
°C
App
Temp
°C
Dew
Point
°C
Rel
Hum
%
Delta-T
°C
Wind Press
QNH
hPa
Press
MSL
hPa
Rain since
9am
mm
Dir  Spd
km/h
Gust
km/h
Spd
kts
Gust
kts
20/11:30pm 23.0 18.4 -1.1 20 10.7 S 13 17 7 9 1014.3 1013.7 0.0
20/11:00pm 23.5 18.9 -1.4 19 11.1 S 13 17 7 9 1014.3 1013.7 0.0

Other formats

Comma delimited format used in spreadsheet applications
http://www.bom.gov.au/fwo/IDN60801/IDN60801.95695.axf

JavaScript Object Notation format (JSON) in row-major order
http://www.bom.gov.au/fwo/IDN60801/IDN60801.95695.json

Data quality

Most of these data are generated automatically and are frequently updated. Quality checks on data are not normally performed. It is possible for incorrect values to appear. Refer to information at About Latest Weather Observations and please check the disclaimer before using these data.